Time;durP1;ratioP1;P1;durP2;ratioP2;P2;SDS_P1;SDS_P2;PMS_P1;PMS_P2;Temp;Humidity;BMP_temperature;BMP_pressure;BME280_temperature;BME280_humidity;BME280_pressure;Samples;Min_cycle;Max_cycle;Signal;HPM_P1;HPM_P2
2022/12/12 00:01:25;;;;;;;0.65;0.65;;;-0.20;99.90;;;;;;5051332;28;20037;-80
2022/12/12 00:03:51;;;;;;;0.30;0.30;;;-0.20;99.90;;;;;;5078199;28;20032;-81
2022/12/12 00:06:17;;;;;;;0.20;0.20;;;-0.10;99.90;;;;;;5056647;28;20048;-80
2022/12/12 00:08:43;;;;;;;2.05;1.88;;;-0.10;99.90;;;;;;5059814;28;20508;-80
2022/12/12 00:11:09;;;;;;;0.17;0.17;;;0.00;99.90;;;;;;5059175;28;20134;-81
2022/12/12 00:13:36;;;;;;;0.57;0.57;;;0.00;99.90;;;;;;5052633;28;20039;-81
2022/12/12 00:16:04;;;;;;;1.23;0.88;;;-0.10;99.90;;;;;;5055909;28;20027;-80
2022/12/12 00:18:29;;;;;;;0.28;0.28;;;0.00;99.90;;;;;;5059456;28;20086;-80
2022/12/12 00:20:56;;;;;;;0.68;0.68;;;-0.10;99.90;;;;;;5053210;28;20037;-80
2022/12/12 00:23:25;;;;;;;0.38;0.38;;;-0.10;99.90;;;;;;5048049;28;20032;-80
2022/12/12 00:25:56;;;;;;;0.30;0.30;;;-0.10;99.90;;;;;;5058027;28;20031;-80
2022/12/12 00:28:22;;;;;;;0.00;0.00;;;-0.10;99.90;;;;;;5054308;28;20050;-80
2022/12/12 00:30:48;;;;;;;0.10;0.10;;;-0.10;99.90;;;;;;5054753;28;20131;-81
2022/12/12 00:33:13;;;;;;;0.20;0.20;;;-0.10;99.90;;;;;;5051699;28;20040;-81
2022/12/12 00:35:39;;;;;;;0.77;0.77;;;-0.20;99.90;;;;;;5063126;28;20025;-81
2022/12/12 00:38:05;;;;;;;0.80;0.80;;;-0.20;99.90;;;;;;5052170;28;20034;-80
2022/12/12 00:40:30;;;;;;;0.47;0.47;;;-0.20;99.90;;;;;;5066238;28;20468;-82
2022/12/12 00:42:56;;;;;;;0.13;0.13;;;-0.20;99.90;;;;;;5055745;28;20037;-81
2022/12/12 00:45:23;;;;;;;0.85;0.63;;;-0.30;99.90;;;;;;5053285;28;20036;-82
2022/12/12 00:47:49;;;;;;;0.20;0.20;;;-0.30;99.90;;;;;;5048094;28;20680;-81
2022/12/12 00:50:15;;;;;;;0.98;0.95;;;-0.30;99.90;;;;;;5061676;28;20127;-81
2022/12/12 00:52:40;;;;;;;0.10;0.10;;;-0.30;99.90;;;;;;5052115;28;20122;-81
2022/12/12 00:55:07;;;;;;;0.10;0.10;;;-0.30;99.90;;;;;;5053098;28;20567;-81
2022/12/12 00:57:33;;;;;;;0.47;0.47;;;-0.20;99.90;;;;;;5054649;28;20020;-80
2022/12/12 00:59:58;;;;;;;0.43;0.43;;;-0.40;99.90;;;;;;5056184;28;20175;-80
2022/12/12 01:02:24;;;;;;;0.95;0.50;;;-0.40;99.90;;;;;;5057781;28;20119;-79
2022/12/12 01:04:50;;;;;;;0.20;0.20;;;-0.40;99.90;;;;;;5052298;28;20051;-80
2022/12/12 01:07:15;;;;;;;0.40;0.40;;;-0.60;99.90;;;;;;5054838;28;20584;-81
2022/12/12 01:09:41;;;;;;;2.65;0.82;;;-0.60;99.90;;;;;;5056305;28;20029;-81
2022/12/12 01:12:07;;;;;;;0.10;0.10;;;-0.70;99.90;;;;;;5049907;28;20603;-81
2022/12/12 01:14:33;;;;;;;0.20;0.20;;;-0.80;99.90;;;;;;5053820;28;20182;-81
2022/12/12 01:16:58;;;;;;;0.65;0.65;;;-0.90;99.90;;;;;;5062574;28;20107;-81
2022/12/12 01:19:24;;;;;;;0.10;0.10;;;-0.90;99.90;;;;;;5059307;28;20029;-82
2022/12/12 01:21:50;;;;;;;1.40;1.35;;;-0.90;99.90;;;;;;5053228;28;20037;-81
2022/12/12 01:24:15;;;;;;;2.17;0.63;;;-0.90;99.90;;;;;;5053222;28;20577;-80
2022/12/12 01:26:41;;;;;;;0.60;0.60;;;-1.00;99.90;;;;;;5056415;28;20040;-80
2022/12/12 01:29:07;;;;;;;0.93;0.93;;;-0.90;99.90;;;;;;5049713;28;20671;-81
2022/12/12 01:31:33;;;;;;;1.65;1.55;;;-0.90;99.90;;;;;;5049237;28;20037;-82
2022/12/12 01:33:58;;;;;;;0.45;0.45;;;-1.00;99.90;;;;;;5052368;28;20058;-81
2022/12/12 01:36:24;;;;;;;0.30;0.30;;;-1.00;99.90;;;;;;5056330;28;20013;-81
2022/12/12 01:38:52;;;;;;;0.10;0.10;;;-1.00;99.90;;;;;;5056895;28;20022;-81
2022/12/12 01:41:19;;;;;;;0.75;0.75;;;-1.10;99.90;;;;;;5064373;28;20035;-81
2022/12/12 01:43:45;;;;;;;26.55;1.65;;;-1.10;99.90;;;;;;5059273;28;20090;-81
2022/12/12 01:46:22;;;;;;;0.20;0.20;;;-1.10;99.90;;;;;;5051714;28;20017;-81
2022/12/12 01:48:53;;;;;;;0.13;0.13;;;-1.10;99.90;;;;;;5081467;28;20033;-81
2022/12/12 01:51:23;;;;;;;0.20;0.20;;;-1.20;99.90;;;;;;5047748;28;20689;-82
2022/12/12 01:53:53;;;;;;;0.13;0.13;;;-1.10;99.90;;;;;;5055034;28;20029;-81
2022/12/12 01:56:20;;;;;;;0.52;0.52;;;-1.20;99.90;;;;;;5051774;28;20517;-81
2022/12/12 01:58:48;;;;;;;0.60;0.60;;;-1.20;99.90;;;;;;5056825;28;20715;-81
2022/12/12 02:01:15;;;;;;;0.10;0.10;;;-1.20;99.90;;;;;;5051019;28;20056;-81
2022/12/12 02:03:42;;;;;;;4.07;1.10;;;-1.20;99.90;;;;;;5053584;28;20772;-83
2022/12/12 02:06:14;;;;;;;0.20;0.20;;;-1.10;99.90;;;;;;5053325;28;20056;-84
2022/12/12 02:08:40;;;;;;;0.32;0.32;;;-1.10;99.90;;;;;;5050206;28;20029;-84
2022/12/12 02:11:06;;;;;;;0.10;0.10;;;-1.10;99.90;;;;;;5061636;28;20609;-83
2022/12/12 02:13:33;;;;;;;0.30;0.30;;;-1.00;99.90;;;;;;5055951;28;20103;-85
2022/12/12 02:16:12;;;;;;;0.20;0.20;;;-1.10;99.90;;;;;;5060470;28;20467;-84
2022/12/12 02:18:54;;;;;;;0.10;0.10;;;-1.20;99.90;;;;;;5059748;28;20050;-84
2022/12/12 02:21:29;;;;;;;0.40;0.40;;;-1.30;99.90;;;;;;5077442;28;20055;-84
2022/12/12 02:24:13;;;;;;;0.40;0.40;;;-1.30;99.90;;;;;;5049471;28;20033;-84
2022/12/12 02:27:08;;;;;;;0.20;0.20;;;-1.40;99.90;;;;;;5057560;28;20194;-84
2022/12/12 02:30:04;;;;;;;0.10;0.10;;;-1.40;99.90;;;;;;5027550;28;20036;-83
2022/12/12 02:32:50;;;;;;;0.20;0.20;;;-1.40;99.90;;;;;;5002645;28;20094;-84
2022/12/12 02:35:34;;;;;;;0.20;0.20;;;-1.40;99.90;;;;;;5050862;28;20033;-84
2022/12/12 02:38:19;;;;;;;0.30;0.30;;;-1.60;99.90;;;;;;5056453;28;20032;-84
2022/12/12 02:41:03;;;;;;;0.30;0.30;;;-1.60;99.90;;;;;;5053084;28;20033;-83
2022/12/12 02:43:52;;;;;;;0.10;0.10;;;-1.60;99.90;;;;;;5060281;28;20036;-83
2022/12/12 02:46:48;;;;;;;0.57;0.57;;;-1.50;99.90;;;;;;5058460;28;20475;-83
2022/12/12 02:49:31;;;;;;;0.23;0.23;;;-1.60;99.90;;;;;;5053261;28;20104;-81
2022/12/12 02:51:59;;;;;;;0.30;0.30;;;-1.70;99.90;;;;;;5065035;28;20089;-83
2022/12/12 02:54:25;;;;;;;0.20;0.20;;;-1.70;99.90;;;;;;5064211;28;20032;-83
2022/12/12 02:56:58;;;;;;;0.30;0.30;;;-1.80;99.90;;;;;;5058408;28;20036;-82
2022/12/12 02:59:39;;;;;;;0.10;0.10;;;-1.90;99.90;;;;;;5062242;28;20021;-83
2022/12/12 03:02:19;;;;;;;0.20;0.20;;;-1.80;99.90;;;;;;5054739;28;20088;-82
2022/12/12 03:08:01;;;;;;;0.10;0.10;;;-1.70;99.90;;;;;;5057266;28;20058;-82
2022/12/12 03:10:54;;;;;;;0.52;0.52;;;-1.70;99.90;;;;;;5061652;28;20033;-81
2022/12/12 03:13:49;;;;;;;0.30;0.30;;;-1.80;99.90;;;;;;5049731;28;20124;-82
2022/12/12 03:16:20;;;;;;;0.40;0.40;;;-1.80;99.90;;;;;;5047570;28;20632;-81
2022/12/12 03:19:09;;;;;;;0.65;0.57;;;-1.90;99.90;;;;;;5062824;28;20613;-81
2022/12/12 03:22:00;;;;;;;0.38;0.38;;;-2.00;99.90;;;;;;5054197;28;20052;-80
2022/12/12 03:24:25;;;;;;;0.63;0.63;;;-1.90;99.90;;;;;;5054233;28;20490;-81
2022/12/12 03:27:04;;;;;;;1.20;1.10;;;-1.90;99.90;;;;;;5060634;28;20033;-80
2022/12/12 03:29:48;;;;;;;0.10;0.10;;;-1.90;99.90;;;;;;5052293;28;20083;-80
2022/12/12 03:32:24;;;;;;;0.10;0.10;;;-1.80;99.90;;;;;;5052916;28;20037;-82
2022/12/12 03:34:58;;;;;;;0.35;0.35;;;-1.80;99.90;;;;;;5053091;28;20027;-82
2022/12/12 03:37:29;;;;;;;0.55;0.55;;;-1.80;99.90;;;;;;5060252;28;20103;-82
2022/12/12 03:39:59;;;;;;;0.20;0.20;;;-1.80;99.90;;;;;;5049884;28;20055;-83
2022/12/12 03:42:48;;;;;;;0.10;0.10;;;-1.70;99.90;;;;;;5057898;28;20530;-83
2022/12/12 03:45:40;;;;;;;0.55;0.55;;;-1.90;99.90;;;;;;5060159;28;20016;-82
2022/12/12 03:48:35;;;;;;;0.30;0.30;;;-1.90;99.90;;;;;;5053418;28;20037;-83
2022/12/12 03:51:05;;;;;;;0.10;0.10;;;-1.90;99.90;;;;;;5052051;28;20103;-84
2022/12/12 03:53:46;;;;;;;0.63;0.63;;;-2.00;99.90;;;;;;5056881;28;20033;-82
2022/12/12 03:56:24;;;;;;;0.10;0.10;;;-2.00;99.90;;;;;;5056770;28;20040;-85
2022/12/12 03:59:01;;;;;;;0.10;0.10;;;-1.90;99.90;;;;;;5063761;28;20084;-85
2022/12/12 04:01:35;;;;;;;0.20;0.20;;;-2.00;99.90;;;;;;5052173;28;20159;-84
2022/12/12 04:04:20;;;;;;;0.40;0.40;;;-1.90;99.90;;;;;;5053228;28;20041;-83
2022/12/12 04:06:55;;;;;;;0.40;0.40;;;-1.90;99.90;;;;;;5063522;28;20143;-84
2022/12/12 04:15:21;;;;;;;0.38;0.38;;;-2.00;99.90;;;;;;5051981;28;20044;-83
2022/12/12 04:18:02;;;;;;;0.10;0.10;;;-2.10;99.90;;;;;;5063001;28;20115;-81
2022/12/12 04:23:37;;;;;;;1.45;0.73;;;-2.30;99.90;;;;;;5053920;28;20150;-81
2022/12/12 04:29:22;;;;;;;0.22;0.22;;;-2.60;99.90;;;;;;5059523;28;20055;-84
2022/12/12 04:31:54;;;;;;;0.98;0.90;;;-2.60;99.90;;;;;;5051842;28;20028;-80
2022/12/12 04:34:52;;;;;;;2.22;1.58;;;-2.60;99.90;;;;;;5056699;28;20043;-81
2022/12/12 04:37:25;;;;;;;2.38;2.22;;;-2.50;99.90;;;;;;5053372;28;20552;-84
2022/12/12 04:39:55;;;;;;;0.10;0.10;;;-2.60;99.90;;;;;;5050840;28;20032;-84
2022/12/12 04:42:24;;;;;;;0.43;0.30;;;-2.60;99.90;;;;;;5050896;28;20066;-84
2022/12/12 04:44:54;;;;;;;7.28;1.25;;;-2.70;99.90;;;;;;5065404;28;20035;-85
2022/12/12 04:47:22;;;;;;;0.13;0.13;;;-2.80;99.90;;;;;;5060301;28;20872;-83
2022/12/12 04:49:50;;;;;;;0.82;0.82;;;-2.70;99.90;;;;;;5062305;28;20605;-84
2022/12/12 04:52:19;;;;;;;0.10;0.10;;;-2.70;99.90;;;;;;5054256;28;20071;-83
2022/12/12 04:55:07;;;;;;;2.10;1.48;;;-2.80;99.90;;;;;;5059559;28;20024;-85
2022/12/12 04:57:38;;;;;;;0.10;0.10;;;-2.80;99.90;;;;;;5058988;28;20481;-83
2022/12/12 05:00:06;;;;;;;0.45;0.45;;;-2.90;99.90;;;;;;5060728;28;20027;-84
2022/12/12 05:03:22;;;;;;;0.63;0.32;;;-2.80;99.90;;;;;;5060111;28;20025;-82
2022/12/12 05:05:56;;;;;;;0.32;0.32;;;-2.80;99.90;;;;;;5034666;28;20745;-87
2022/12/12 05:08:54;;;;;;;0.57;0.57;;;-2.90;99.90;;;;;;5066389;28;20036;-85
2022/12/12 05:11:21;;;;;;;0.20;0.20;;;-2.90;99.90;;;;;;5048806;28;20052;-88
2022/12/12 05:13:46;;;;;;;;;;;-2.80;99.90;;;;;;5061324;28;20496;-90
2022/12/12 05:16:19;;;;;;;0.10;0.10;;;-2.90;99.90;;;;;;5056463;28;19940;-87
2022/12/12 05:18:45;;;;;;;0.20;0.20;;;-2.90;99.90;;;;;;5061031;28;20497;-84
2022/12/12 05:21:11;;;;;;;0.43;0.43;;;-2.90;99.90;;;;;;5065249;28;20056;-86
2022/12/12 05:23:37;;;;;;;0.30;0.30;;;-3.00;99.90;;;;;;5060867;28;20025;-82
2022/12/12 05:26:08;;;;;;;0.10;0.10;;;-3.00;99.90;;;;;;5062885;28;20028;-84
2022/12/12 05:28:34;;;;;;;2.13;0.47;;;-3.00;99.90;;;;;;5054800;28;20381;-81
2022/12/12 05:31:00;;;;;;;1.65;1.55;;;-2.90;99.90;;;;;;5055767;28;20130;-85
2022/12/12 05:33:26;;;;;;;0.38;0.38;;;-3.00;99.90;;;;;;5063299;28;20108;-84
2022/12/12 05:35:51;;;;;;;0.20;0.20;;;-2.80;99.90;;;;;;5062431;28;20135;-83
2022/12/12 05:38:17;;;;;;;0.32;0.32;;;-3.00;99.90;;;;;;5063446;28;20021;-86
2022/12/12 05:40:43;;;;;;;0.50;0.50;;;-3.00;99.90;;;;;;5062736;28;20028;-82
2022/12/12 05:43:08;;;;;;;0.20;0.20;;;-2.90;99.90;;;;;;5066008;28;20462;-84
2022/12/12 05:45:34;;;;;;;17.95;1.45;;;-2.90;99.90;;;;;;5063054;28;20028;-83
2022/12/12 05:48:00;;;;;;;0.10;0.10;;;-2.80;99.90;;;;;;5066402;28;20112;-84
2022/12/12 05:50:25;;;;;;;0.85;0.85;;;-2.90;99.90;;;;;;5066151;28;20032;-88
2022/12/12 05:52:51;;;;;;;0.10;0.10;;;-2.80;99.90;;;;;;5060253;28;20048;-84
2022/12/12 05:55:17;;;;;;;0.40;0.40;;;-2.90;99.90;;;;;;5061789;28;20032;-78
2022/12/12 05:57:42;;;;;;;0.30;0.30;;;-2.90;99.90;;;;;;5062034;28;20025;-84
2022/12/12 06:00:09;;;;;;;0.20;0.20;;;-2.90;99.90;;;;;;5056754;28;20120;-83
2022/12/12 06:02:34;;;;;;;0.10;0.10;;;-2.90;99.90;;;;;;5063633;28;20035;-85
2022/12/12 06:05:00;;;;;;;1.00;1.00;;;-2.80;99.90;;;;;;5057442;28;20737;-83
2022/12/12 06:07:26;;;;;;;0.20;0.20;;;-2.70;99.90;;;;;;5080872;28;20101;-85
2022/12/12 06:09:51;;;;;;;0.90;0.90;;;-2.60;99.90;;;;;;5058986;28;20127;-83
2022/12/12 06:12:17;;;;;;;0.30;0.30;;;-2.60;99.90;;;;;;5063412;28;20029;-84
2022/12/12 06:14:43;;;;;;;0.10;0.10;;;-2.70;99.90;;;;;;5056807;28;20030;-85
2022/12/12 06:17:08;;;;;;;0.70;0.40;;;-2.60;99.90;;;;;;5058517;28;20024;-82
2022/12/12 06:19:34;;;;;;;0.40;0.40;;;-2.60;99.90;;;;;;5060980;28;20040;-83
2022/12/12 06:22:00;;;;;;;0.15;0.15;;;-2.50;99.90;;;;;;5063102;28;20033;-88
2022/12/12 06:24:26;;;;;;;0.20;0.20;;;-2.50;99.90;;;;;;5072481;28;20037;-88
2022/12/12 06:26:51;;;;;;;0.20;0.20;;;-2.40;99.90;;;;;;5071408;28;20029;-86
2022/12/12 06:29:17;;;;;;;0.10;0.10;;;-2.50;99.90;;;;;;5060999;28;20037;-87
2022/12/12 06:31:43;;;;;;;0.40;0.40;;;-2.50;99.90;;;;;;5064266;28;20029;-85
2022/12/12 06:34:09;;;;;;;0.10;0.10;;;-2.50;99.90;;;;;;5053573;28;20029;-87
2022/12/12 06:36:35;;;;;;;0.40;0.40;;;-2.50;99.90;;;;;;5069493;28;20080;-89
2022/12/12 06:39:01;;;;;;;0.40;0.40;;;-2.50;99.90;;;;;;5068713;28;20040;-86
2022/12/12 06:41:28;;;;;;;0.23;0.23;;;-2.50;99.90;;;;;;5059005;28;20043;-86
2022/12/12 06:43:54;;;;;;;0.20;0.20;;;-2.60;99.90;;;;;;5069778;28;20035;-90
2022/12/12 06:46:23;;;;;;;1.50;1.40;;;-2.50;99.90;;;;;;5064588;28;20032;-83
2022/12/12 06:48:49;;;;;;;0.32;0.32;;;-2.50;99.90;;;;;;5066779;28;20029;-82
2022/12/12 06:51:19;;;;;;;0.80;0.80;;;-2.50;99.90;;;;;;5069657;28;20063;-83
2022/12/12 06:53:45;;;;;;;0.32;0.32;;;-2.50;99.90;;;;;;5065075;28;20029;-84
2022/12/12 06:56:20;;;;;;;0.20;0.20;;;-2.50;99.90;;;;;;5063319;28;20060;-84
2022/12/12 06:58:46;;;;;;;0.35;0.35;;;-2.50;99.90;;;;;;5057951;28;20058;-82
2022/12/12 07:01:19;;;;;;;0.10;0.10;;;-2.60;99.90;;;;;;5067460;28;20060;-83
2022/12/12 07:03:45;;;;;;;0.30;0.30;;;-2.60;99.90;;;;;;5068004;28;20032;-82
2022/12/12 07:06:11;;;;;;;0.60;0.60;;;-2.60;99.90;;;;;;5066351;28;20656;-82
2022/12/12 07:08:37;;;;;;;0.10;0.10;;;-2.60;99.90;;;;;;5064517;28;20271;-83
2022/12/12 07:11:05;;;;;;;0.45;0.45;;;-2.50;99.90;;;;;;5062070;28;20025;-84
2022/12/12 07:13:31;;;;;;;0.10;0.10;;;-2.50;99.90;;;;;;5066088;28;20055;-83
2022/12/12 07:15:57;;;;;;;0.10;0.10;;;-2.50;99.90;;;;;;5058263;28;20103;-83
2022/12/12 07:18:23;;;;;;;0.10;0.10;;;-2.40;99.90;;;;;;5061462;28;20167;-84
2022/12/12 07:20:49;;;;;;;0.22;0.22;;;-2.40;99.90;;;;;;5063996;28;20036;-84
2022/12/12 07:23:14;;;;;;;0.13;0.13;;;-2.30;99.90;;;;;;5060939;28;20527;-85
2022/12/12 07:25:43;;;;;;;0.30;0.30;;;-2.30;99.90;;;;;;5064529;28;20043;-85
2022/12/12 07:28:10;;;;;;;0.57;0.57;;;-2.20;99.90;;;;;;5079756;28;20032;-83
2022/12/12 07:30:40;;;;;;;;;;;-2.10;99.90;;;;;;5059784;28;20032;-82
2022/12/12 07:33:07;;;;;;;0.20;0.20;;;-2.10;99.90;;;;;;5068453;28;19913;-85
2022/12/12 07:35:33;;;;;;;0.10;0.10;;;-2.10;99.90;;;;;;5060620;28;20029;-83
2022/12/12 07:37:59;;;;;;;1.60;1.50;;;-2.20;99.90;;;;;;5056607;28;20037;-82
2022/12/12 07:40:24;;;;;;;0.10;0.10;;;-2.20;99.90;;;;;;5056409;28;20037;-85
2022/12/12 07:42:50;;;;;;;0.20;0.20;;;-2.40;99.90;;;;;;5064026;28;20033;-85
2022/12/12 07:45:16;;;;;;;0.63;0.63;;;-2.30;99.90;;;;;;5061697;28;20025;-85
2022/12/12 07:47:42;;;;;;;0.10;0.10;;;-2.20;99.90;;;;;;5067811;28;20025;-84
2022/12/12 07:50:08;;;;;;;0.20;0.20;;;-2.20;99.90;;;;;;5065919;28;20024;-82
2022/12/12 07:52:34;;;;;;;0.10;0.10;;;-2.10;99.90;;;;;;5063743;28;20275;-87
2022/12/12 07:55:01;;;;;;;0.20;0.20;;;-2.10;99.90;;;;;;5060237;28;20055;-82
2022/12/12 07:57:27;;;;;;;0.10;0.10;;;-2.00;99.90;;;;;;5068565;28;20063;-80
2022/12/12 07:59:53;;;;;;;1.02;1.02;;;-2.10;99.90;;;;;;5058411;28;20068;-79
2022/12/12 08:02:19;;;;;;;1.50;1.40;;;-2.10;99.90;;;;;;5062226;28;20105;-81
2022/12/12 08:04:44;;;;;;;0.28;0.28;;;-2.00;99.90;;;;;;5053024;28;20044;-80
2022/12/12 08:07:10;;;;;;;0.30;0.30;;;-1.90;99.90;;;;;;5059896;28;20032;-81
2022/12/12 08:09:36;;;;;;;0.63;0.63;;;-2.00;99.90;;;;;;5062491;28;20029;-80
2022/12/12 08:12:02;;;;;;;0.10;0.10;;;-2.00;99.90;;;;;;5055480;28;20036;-79
2022/12/12 08:14:28;;;;;;;0.10;0.10;;;-1.90;99.90;;;;;;5060159;28;20044;-80
2022/12/12 08:16:54;;;;;;;0.28;0.28;;;-1.90;99.90;;;;;;5053486;28;20060;-80
2022/12/12 08:19:19;;;;;;;2.08;0.68;;;-1.90;99.90;;;;;;5053775;28;20112;-81
2022/12/12 08:21:48;;;;;;;0.50;0.50;;;-1.90;99.90;;;;;;5054015;28;20135;-81
2022/12/12 08:24:15;;;;;;;0.22;0.22;;;-1.80;99.90;;;;;;5063103;28;20032;-80
2022/12/12 08:26:42;;;;;;;0.10;0.10;;;-1.70;99.90;;;;;;5061605;28;20037;-79
2022/12/12 08:29:08;;;;;;;0.10;0.10;;;-1.60;99.90;;;;;;5057981;28;20033;-80
2022/12/12 08:31:36;;;;;;;0.10;0.10;;;-1.60;99.90;;;;;;5058353;28;20559;-80
2022/12/12 08:34:02;;;;;;;0.45;0.38;;;-1.50;99.90;;;;;;5053615;28;20080;-82
2022/12/12 08:36:31;;;;;;;0.20;0.20;;;-1.50;99.90;;;;;;5057986;28;20243;-81
2022/12/12 08:39:08;;;;;;;0.20;0.20;;;-1.40;99.90;;;;;;5055727;28;20059;-80
2022/12/12 08:41:36;;;;;;;0.20;0.20;;;-1.40;99.90;;;;;;5056874;28;20028;-80
2022/12/12 08:44:02;;;;;;;0.30;0.30;;;-1.50;99.90;;;;;;5060855;28;20115;-81
2022/12/12 08:46:28;;;;;;;0.30;0.30;;;-1.50;99.90;;;;;;5063172;28;20101;-81
2022/12/12 08:48:53;;;;;;;0.10;0.10;;;-1.40;99.90;;;;;;5064524;28;20524;-81
2022/12/12 08:51:19;;;;;;;0.65;0.65;;;-1.40;99.90;;;;;;5064710;28;20035;-81
2022/12/12 08:53:46;;;;;;;0.90;0.90;;;-1.30;99.90;;;;;;5065136;28;20024;-81
2022/12/12 08:56:12;;;;;;;1.13;1.10;;;-1.30;99.90;;;;;;5066564;28;20068;-81
2022/12/12 08:58:38;;;;;;;0.70;0.70;;;-1.30;99.90;;;;;;5064104;28;20063;-81
2022/12/12 09:01:16;;;;;;;0.75;0.45;;;-1.30;99.90;;;;;;5066361;28;20029;-82
2022/12/12 09:03:42;;;;;;;0.20;0.20;;;-1.30;99.90;;;;;;5061739;28;20110;-81
2022/12/12 09:06:09;;;;;;;0.98;0.98;;;-1.20;99.90;;;;;;5065558;28;20048;-81
2022/12/12 09:08:35;;;;;;;;;;;-1.10;99.90;;;;;;5062304;28;20651;-81
2022/12/12 09:11:01;;;;;;;0.30;0.30;;;-1.10;99.90;;;;;;5047028;28;20007;-81
2022/12/12 09:13:27;;;;;;;0.10;0.10;;;-1.10;99.90;;;;;;5063466;28;20259;-81
2022/12/12 09:15:53;;;;;;;0.85;0.85;;;-1.00;99.90;;;;;;5060875;28;20086;-81
2022/12/12 09:18:19;;;;;;;0.45;0.45;;;-1.00;99.90;;;;;;5055594;28;20031;-82
2022/12/12 09:20:53;;;;;;;2.38;2.17;;;-0.80;99.90;;;;;;5063711;28;20523;-81
2022/12/12 09:23:21;;;;;;;0.40;0.40;;;-0.80;99.90;;;;;;5054650;28;20032;-82
2022/12/12 09:25:47;;;;;;;0.20;0.20;;;-0.70;99.90;;;;;;5058213;28;20046;-81
2022/12/12 09:28:15;;;;;;;1.38;1.25;;;-0.40;99.90;;;;;;5066788;28;20086;-81
2022/12/12 09:30:41;;;;;;;0.20;0.20;;;0.00;99.90;;;;;;5066777;28;20111;-80
2022/12/12 09:33:07;;;;;;;0.75;0.75;;;0.50;99.90;;;;;;5067045;28;20837;-79
2022/12/12 09:35:33;;;;;;;0.17;0.17;;;0.50;99.90;;;;;;5066179;28;20032;-79
2022/12/12 09:37:59;;;;;;;0.30;0.30;;;0.90;99.90;;;;;;5051686;28;20476;-80
2022/12/12 09:40:51;;;;;;;6.07;1.45;;;1.00;99.90;;;;;;5054320;28;20028;-79
2022/12/12 09:43:21;;;;;;;1.65;1.30;;;0.90;99.90;;;;;;5059517;28;20028;-80
2022/12/12 09:45:47;;;;;;;0.10;0.10;;;0.70;99.90;;;;;;5061954;28;20608;-79
2022/12/12 09:48:29;;;;;;;0.67;0.53;;;0.50;99.90;;;;;;5048360;28;20048;-79
2022/12/12 09:50:55;;;;;;;0.10;0.10;;;0.90;99.90;;;;;;5076835;28;20402;-79
2022/12/12 09:53:24;;;;;;;0.10;0.10;;;1.10;99.90;;;;;;5051588;28;20039;-79
2022/12/12 09:56:03;;;;;;;1.67;1.08;;;1.20;99.90;;;;;;5060594;28;20055;-80
2022/12/12 09:58:40;;;;;;;1.05;0.95;;;1.10;99.90;;;;;;5048558;28;20136;-79
2022/12/12 10:01:32;;;;;;;0.40;0.40;;;1.20;99.90;;;;;;5048793;28;20063;-79
2022/12/12 10:04:09;;;;;;;0.20;0.20;;;1.40;99.90;;;;;;5047746;28;20032;-79
2022/12/12 10:06:48;;;;;;;0.85;0.85;;;1.70;99.90;;;;;;5053858;28;20925;-79
2022/12/12 10:10:01;;;;;;;0.25;0.25;;;1.80;99.90;;;;;;5047938;28;20028;-78
2022/12/12 10:12:28;;;;;;;1.55;1.45;;;1.80;99.90;;;;;;5050278;28;20756;-78
2022/12/12 10:15:00;;;;;;;0.60;0.60;;;1.90;99.90;;;;;;5066492;28;20029;-78
2022/12/12 10:17:38;;;;;;;0.10;0.10;;;1.90;99.90;;;;;;5053413;28;20029;-78
2022/12/12 10:20:07;;;;;;;0.10;0.10;;;1.70;99.90;;;;;;5055556;28;20021;-78
2022/12/12 10:22:38;;;;;;;1.20;0.85;;;1.50;99.90;;;;;;5059017;28;20043;-79
2022/12/12 10:25:07;;;;;;;0.17;0.17;;;1.50;99.90;;;;;;5053243;28;20724;-79
2022/12/12 10:27:33;;;;;;;0.60;0.60;;;1.60;99.90;;;;;;5047956;28;20041;-78
2022/12/12 10:30:13;;;;;;;0.13;0.13;;;1.60;99.90;;;;;;5047449;28;20405;-79
2022/12/12 10:33:06;;;;;;;0.10;0.10;;;1.70;99.90;;;;;;5058909;28;20062;-78
2022/12/12 10:36:08;;;;;;;0.10;0.10;;;1.70;99.90;;;;;;5049849;28;20021;-78
2022/12/12 10:38:55;;;;;;;0.13;0.13;;;1.70;99.90;;;;;;4988727;28;20046;-78
2022/12/12 10:41:38;;;;;;;0.20;0.20;;;1.80;99.90;;;;;;5058988;28;20534;-78
2022/12/12 10:44:26;;;;;;;0.20;0.20;;;1.80;99.90;;;;;;5049894;28;20043;-78
2022/12/12 10:46:58;;;;;;;0.10;0.10;;;1.90;99.90;;;;;;5056815;28;20064;-79
2022/12/12 10:49:24;;;;;;;0.45;0.45;;;2.00;99.90;;;;;;5058496;28;20089;-78
2022/12/12 10:51:52;;;;;;;0.10;0.10;;;2.00;99.90;;;;;;5064071;28;20036;-78
2022/12/12 10:54:25;;;;;;;0.22;0.22;;;2.20;99.90;;;;;;5055350;28;20025;-78
2022/12/12 10:57:13;;;;;;;0.30;0.30;;;2.50;99.70;;;;;;5051711;28;20060;-78
2022/12/12 10:59:55;;;;;;;0.98;0.52;;;2.70;99.80;;;;;;5047240;28;20036;-78
2022/12/12 11:02:39;;;;;;;0.10;0.10;;;2.80;99.20;;;;;;5056029;28;20090;-78
2022/12/12 11:05:05;;;;;;;0.52;0.52;;;2.60;99.00;;;;;;5046783;28;20095;-78
2022/12/12 11:07:39;;;;;;;0.10;0.10;;;2.60;99.40;;;;;;5059973;28;20076;-78
2022/12/12 11:10:25;;;;;;;0.30;0.30;;;2.40;99.50;;;;;;5058649;28;20036;-78
2022/12/12 11:13:11;;;;;;;0.43;0.43;;;2.40;99.90;;;;;;5055516;28;20028;-78
2022/12/12 11:15:55;;;;;;;0.30;0.30;;;2.40;99.90;;;;;;5055352;28;20041;-78
2022/12/12 11:18:22;;;;;;;0.45;0.45;;;2.20;99.90;;;;;;5050020;28;20025;-78
2022/12/12 11:20:55;;;;;;;1.35;0.52;;;2.10;99.90;;;;;;5062844;28;20025;-78
2022/12/12 11:23:26;;;;;;;0.05;0.05;;;2.10;99.90;;;;;;5053748;28;20027;-78
2022/12/12 11:25:58;;;;;;;0.40;0.40;;;2.00;99.90;;;;;;5050103;28;20370;-78
2022/12/12 11:28:30;;;;;;;1.02;1.02;;;1.90;99.90;;;;;;5048138;28;20036;-78
2022/12/12 11:30:56;;;;;;;0.85;0.85;;;1.90;99.90;;;;;;5049765;28;20040;-78
2022/12/12 11:33:42;;;;;;;1.95;0.65;;;2.00;99.90;;;;;;5057848;28;20520;-77
2022/12/12 11:36:14;;;;;;;0.30;0.30;;;2.00;99.90;;;;;;5049817;28;20082;-78
2022/12/12 11:38:44;;;;;;;0.52;0.30;;;2.00;99.90;;;;;;5053896;28;20040;-79
2022/12/12 11:41:11;;;;;;;0.13;0.13;;;2.00;99.90;;;;;;5053361;28;20021;-78
2022/12/12 11:43:47;;;;;;;0.15;0.15;;;2.10;99.90;;;;;;5062353;28;20036;-78
2022/12/12 11:46:12;;;;;;;1.93;1.70;;;2.30;99.90;;;;;;5059538;28;20032;-78
2022/12/12 11:48:50;;;;;;;0.65;0.65;;;2.30;99.50;;;;;;5050593;28;20848;-77
2022/12/12 11:51:35;;;;;;;0.30;0.30;;;2.30;99.50;;;;;;5062237;28;20106;-79
2022/12/12 11:54:25;;;;;;;0.10;0.10;;;2.50;99.70;;;;;;5059104;28;20140;-78
2022/12/12 11:57:02;;;;;;;0.10;0.10;;;2.50;99.40;;;;;;5061077;28;20136;-78
2022/12/12 11:59:53;;;;;;;0.75;0.75;;;2.50;99.90;;;;;;5061104;28;20712;-78
2022/12/12 12:02:44;;;;;;;0.10;0.10;;;2.40;99.60;;;;;;5053154;28;20032;-79
2022/12/12 12:05:21;;;;;;;0.32;0.32;;;2.30;99.80;;;;;;5049337;28;20052;-78
2022/12/12 12:08:09;;;;;;;0.40;0.40;;;2.30;99.50;;;;;;5060449;28;20499;-78
2022/12/12 12:11:13;;;;;;;0.13;0.13;;;2.30;99.30;;;;;;5049650;28;20032;-78
2022/12/12 12:14:13;;;;;;;1.98;1.13;;;2.30;98.80;;;;;;5056478;28;20677;-78
2022/12/12 12:16:45;;;;;;;0.82;0.82;;;2.30;99.00;;;;;;5064809;28;20020;-79
2022/12/12 12:19:26;;;;;;;0.52;0.52;;;2.40;99.70;;;;;;5053408;28;20028;-78
2022/12/12 12:22:02;;;;;;;0.10;0.10;;;2.30;98.80;;;;;;5050729;28;20025;-78
2022/12/12 12:24:50;;;;;;;0.10;0.10;;;2.40;98.60;;;;;;5058888;28;20025;-78
2022/12/12 12:27:24;;;;;;;0.35;0.35;;;2.50;98.40;;;;;;5059972;28;20040;-79
2022/12/12 12:30:05;;;;;;;0.17;0.17;;;2.60;97.90;;;;;;5063927;28;20029;-78
2022/12/12 12:32:47;;;;;;;0.25;0.25;;;2.60;98.20;;;;;;5058880;28;20061;-78
2022/12/12 12:35:32;;;;;;;0.65;0.65;;;2.80;97.50;;;;;;5079067;28;20028;-78
2022/12/12 12:38:04;;;;;;;0.20;0.20;;;2.60;98.00;;;;;;5049012;28;20792;-78
2022/12/12 12:41:04;;;;;;;0.40;0.40;;;2.60;98.00;;;;;;5057920;28;20037;-78
2022/12/12 12:43:42;;;;;;;0.20;0.20;;;2.60;97.90;;;;;;5060446;28;20048;-77
2022/12/12 12:46:17;;;;;;;0.80;0.75;;;2.60;98.20;;;;;;5050198;28;20056;-78
2022/12/12 12:48:56;;;;;;;0.15;0.15;;;2.50;98.40;;;;;;5050396;28;20063;-78
2022/12/12 12:51:25;;;;;;;1.17;0.77;;;2.50;98.00;;;;;;5050181;28;20047;-78
2022/12/12 12:54:12;;;;;;;0.10;0.10;;;2.60;97.70;;;;;;5047223;28;20020;-78
2022/12/12 12:56:48;;;;;;;0.10;0.10;;;2.60;97.80;;;;;;5049913;28;20028;-78
2022/12/12 12:59:19;;;;;;;0.65;0.65;;;2.60;98.10;;;;;;5047188;28;20056;-78
2022/12/12 13:01:49;;;;;;;0.73;0.73;;;2.60;98.00;;;;;;5048633;28;20090;-78
2022/12/12 13:04:26;;;;;;;0.40;0.40;;;2.60;98.10;;;;;;5061519;28;20029;-78
2022/12/12 13:06:57;;;;;;;;;;;2.60;97.60;;;;;;5054661;28;20094;-78
2022/12/12 13:09:41;;;;;;;0.20;0.20;;;2.60;98.10;;;;;;5060695;28;19931;-78
2022/12/12 13:12:33;;;;;;;0.25;0.25;;;2.60;97.60;;;;;;5049287;28;20832;-78
2022/12/12 13:15:18;;;;;;;2.35;1.20;;;2.70;97.60;;;;;;5059612;28;20070;-78
2022/12/12 13:18:01;;;;;;;0.95;0.88;;;2.70;97.70;;;;;;5048357;28;20029;-77
2022/12/12 13:20:31;;;;;;;0.15;0.15;;;2.60;97.20;;;;;;5051384;28;20208;-78
2022/12/12 13:23:07;;;;;;;1.55;1.33;;;2.60;98.30;;;;;;5062851;28;20736;-78
2022/12/12 13:25:45;;;;;;;0.10;0.10;;;2.60;98.60;;;;;;5064741;28;20029;-78
2022/12/12 13:28:20;;;;;;;0.17;0.17;;;2.60;98.10;;;;;;5060397;28;20032;-78
2022/12/12 13:31:10;;;;;;;0.35;0.35;;;2.60;98.40;;;;;;5059672;28;20059;-78
2022/12/12 13:33:48;;;;;;;6.93;1.48;;;2.60;98.40;;;;;;5059103;28;20025;-78